Aérodrome :
LOGIN :

S'inscrire | Disclaimer

   EN    FR    IT 

 










Légende :    VFR   VFR Marginal   IFR   IFR Intensif   IFR Très Intensif
Visi : 
Plafond : 
>= 8 km
>= 3000ft
5 à 8 km
1000 à 3000 ft
1500m à 5 km
500 à 1000 ft
800 à 1500m
200 à 500 ft
< 800m
< 200 ft
Symboles :   Orages  Brouillard  Fortes neiges  Fortes précipitations  Vent > 20 kt
SIGMETs :   Divers  Orages  Givrage  Turbulence  Onde Orograph.  Cendres Volcan.







- Altitude de l'aérodrome : 51 ft
- Code IATA : GWT


EDXW - Westerland-Sylt Island

DERNIER METAR :
  • 291650Z 04005KT 010V080 9999 BKN041 09/02 Q1018

METARs EXPIRÉS :
  • 291620Z 32008KT CAVOK 09/04 Q1018
  • 291550Z 33008KT 300V020 9999 SCT049 09/03 Q1018
  • 291520Z 01007KT 320V060 9999 SCT047 09/03 Q1018
  • 291450Z 02006KT 310V070 9999 FEW048 10/03 Q1018

TAF TAF EDXW
Valide du 29 à 15h jusqu'au 29 à 21h UTC


291400Z 2915/2921 02008KT 9999 FEW025
BECMG 2916/2918 08009KT
Pas de NOTAMs connus pour ce terrain.



MET'MAP, la Météo Aéronautique d'un coup d'oeil ! - Copyright ORBIFLY Décembre 2007 - Disclaimer

ORBIFLY MET'MAP TEAM :

Programmation & Développement : Alexandra Zaïnal
Conception & Développement : Baudouin d'Aumeries
Co-Programmation & Développement : Marc-Olivier Méhu
Soutien technique & logistique : Manuel Goepfert

Contact : metmap@orbifly.com




SOURCES & CREDITS :

   NOAA